createdAt,value
2017-07-18T00:00:05.946Z,25.35
2017-07-18T00:00:46.608Z,25.38
2017-07-18T00:01:27.067Z,25.28
2017-07-18T00:02:07.625Z,25.39
2017-07-18T00:02:48.108Z,25.33
2017-07-18T00:03:28.591Z,25.3
2017-07-18T00:04:09.128Z,25.2
2017-07-18T00:04:49.572Z,25.17
2017-07-18T00:05:30.116Z,25.23
2017-07-18T00:06:10.578Z,25.24
2017-07-18T00:06:51.109Z,25.21
2017-07-18T00:07:31.643Z,25.1
2017-07-18T00:08:12.244Z,25.1
2017-07-18T00:08:52.730Z,25.14
2017-07-18T00:09:33.215Z,25
2017-07-18T00:10:13.706Z,24.99
2017-07-18T00:10:54.218Z,25.05
2017-07-18T00:11:34.961Z,24.99
2017-07-18T00:12:15.505Z,24.88
2017-07-18T00:12:56.014Z,25
2017-07-18T00:13:36.481Z,25.08
2017-07-18T00:14:18.008Z,25.09
2017-07-18T00:14:58.473Z,25.18
2017-07-18T00:15:38.987Z,24.99
2017-07-18T00:16:19.491Z,25.13
2017-07-18T00:16:59.990Z,25
2017-07-18T00:17:40.475Z,24.96
2017-07-18T00:18:20.999Z,24.93
2017-07-18T00:19:01.492Z,24.9
2017-07-18T00:19:41.999Z,24.85
2017-07-18T00:20:22.485Z,24.99
2017-07-18T00:21:02.939Z,24.85
2017-07-18T00:21:43.461Z,24.87
2017-07-18T00:22:23.967Z,24.85
2017-07-18T00:23:04.445Z,24.71
2017-07-18T00:23:44.920Z,24.83
2017-07-18T00:24:25.443Z,24.8
2017-07-18T00:25:05.952Z,24.91
2017-07-18T00:25:46.544Z,24.9
2017-07-18T00:26:26.980Z,24.95
2017-07-18T00:27:07.477Z,24.93
2017-07-18T00:27:47.995Z,25
2017-07-18T00:28:28.525Z,24.96
2017-07-18T00:29:09.026Z,24.87
2017-07-18T00:29:49.557Z,24.9
2017-07-18T00:30:30.054Z,24.88
2017-07-18T00:31:10.517Z,24.9
2017-07-18T00:31:51.032Z,24.96
2017-07-18T00:32:31.541Z,24.9
2017-07-18T00:33:12.128Z,24.96
2017-07-18T00:33:52.601Z,24.88
2017-07-18T00:34:33.002Z,24.84
2017-07-18T00:35:13.505Z,25
2017-07-18T00:35:54.012Z,25.03
2017-07-18T00:36:34.489Z,24.93
2017-07-18T00:37:14.988Z,24.9
2017-07-18T00:37:55.465Z,24.85
2017-07-18T00:38:35.972Z,24.73
2017-07-18T00:39:16.443Z,24.76
2017-07-18T00:39:56.919Z,24.73
2017-07-18T00:40:37.487Z,24.76
2017-07-18T00:41:17.946Z,24.65
2017-07-18T00:41:58.486Z,24.67
2017-07-18T00:42:38.968Z,24.71
2017-07-18T00:43:19.458Z,24.67
2017-07-18T00:44:00.004Z,24.78
2017-07-18T00:44:40.447Z,24.71
2017-07-18T00:45:21.084Z,24.81
2017-07-18T00:46:01.568Z,24.78
2017-07-18T00:46:42.032Z,24.76
2017-07-18T00:47:22.549Z,24.76
2017-07-18T00:48:03.034Z,24.76
2017-07-18T00:48:43.533Z,24.9
2017-07-18T00:49:23.992Z,24.73
2017-07-18T00:50:04.484Z,24.77
2017-07-18T00:50:44.981Z,24.71
2017-07-18T00:51:25.481Z,24.67
2017-07-18T00:52:05.937Z,24.69
2017-07-18T00:52:46.539Z,24.52
2017-07-18T00:53:27.628Z,24.65
2017-07-18T00:54:07.617Z,24.65
2017-07-18T00:54:48.073Z,24.64
2017-07-18T00:55:28.577Z,24.64
2017-07-18T00:56:09.077Z,24.55
2017-07-18T00:56:49.585Z,24.64
2017-07-18T00:57:30.089Z,24.6
2017-07-18T00:58:10.565Z,24.55
2017-07-18T00:58:51.079Z,24.55
2017-07-18T00:59:31.610Z,24.64
2017-07-18T01:00:12.057Z,24.52
2017-07-18T01:00:52.539Z,24.55
2017-07-18T01:01:33.078Z,24.64
2017-07-18T01:02:13.536Z,24.53
2017-07-18T01:02:54.039Z,24.58
2017-07-18T01:03:34.513Z,24.49
2017-07-18T01:04:15.027Z,24.39
2017-07-18T01:04:55.471Z,24.4
2017-07-18T01:05:35.972Z,24.43
2017-07-18T01:06:16.471Z,24.4
2017-07-18T01:06:57.060Z,24.37
2017-07-18T01:07:37.622Z,24.32
2017-07-18T01:08:18.070Z,24.24
2017-07-18T01:08:58.581Z,24.4
2017-07-18T01:09:39.083Z,24.42
2017-07-18T01:10:19.582Z,24.39
2017-07-18T01:11:00.089Z,24.42
2017-07-18T01:11:40.523Z,24.45
2017-07-18T01:12:21.080Z,24.3
2017-07-18T01:13:01.606Z,24.39
2017-07-18T01:13:42.134Z,24.43
2017-07-18T01:14:22.569Z,24.35
2017-07-18T01:15:03.082Z,24.39
2017-07-18T01:15:43.562Z,24.34
2017-07-18T01:16:24.086Z,24.27
2017-07-18T01:17:04.611Z,24.24
2017-07-18T01:17:45.064Z,24.31
2017-07-18T01:18:25.738Z,24.28
2017-07-18T01:19:06.222Z,24.3
2017-07-18T01:19:46.725Z,24.31
2017-07-18T01:20:27.230Z,24.32
2017-07-18T01:21:07.946Z,24.3
2017-07-18T01:21:48.418Z,24.3
2017-07-18T01:22:28.909Z,24.4
2017-07-18T01:23:09.410Z,24.39
2017-07-18T01:23:49.879Z,24.39
2017-07-18T01:24:30.377Z,24.39
2017-07-18T01:25:10.862Z,24.32
2017-07-18T01:25:51.373Z,24.27
2017-07-18T01:26:31.853Z,24.18
2017-07-18T01:27:12.347Z,24.22
2017-07-18T01:27:52.901Z,24.31
2017-07-18T01:28:33.375Z,24.31
2017-07-18T01:29:13.903Z,24.27
2017-07-18T01:29:54.394Z,24.25
2017-07-18T01:30:34.838Z,24.21
2017-07-18T01:31:15.332Z,24.24
2017-07-18T01:31:55.824Z,24.09
2017-07-18T01:32:36.317Z,24.12
2017-07-18T01:33:16.841Z,24.22
2017-07-18T01:33:57.304Z,24.1
2017-07-18T01:34:37.790Z,24.08
2017-07-18T01:35:18.473Z,24.09
2017-07-18T01:35:59.177Z,24.12
2017-07-18T01:36:39.684Z,24.13
2017-07-18T01:37:20.200Z,24.15
2017-07-18T01:38:00.652Z,24.16
2017-07-18T01:38:41.145Z,24.13
2017-07-18T01:39:21.712Z,24.05
2017-07-18T01:40:02.168Z,24.02
2017-07-18T01:40:42.655Z,23.95
2017-07-18T01:41:23.194Z,23.95
2017-07-18T01:42:03.671Z,24.05
2017-07-18T01:42:44.242Z,24.02
2017-07-18T01:43:24.740Z,23.93
2017-07-18T01:44:05.176Z,23.85
2017-07-18T01:44:45.692Z,23.84
2017-07-18T01:45:26.165Z,23.85
2017-07-18T01:46:06.656Z,23.79
2017-07-18T01:46:47.163Z,23.88
2017-07-18T01:47:27.632Z,23.9
2017-07-18T01:48:08.112Z,23.91
2017-07-18T01:48:48.642Z,23.76
2017-07-18T01:49:29.194Z,23.9
2017-07-18T01:50:09.635Z,23.88
2017-07-18T01:50:50.109Z,23.76
2017-07-18T01:51:30.625Z,23.75
2017-07-18T01:52:11.099Z,23.87
2017-07-18T01:52:51.636Z,23.94
2017-07-18T01:53:32.164Z,23.98
2017-07-18T01:54:12.579Z,23.97
2017-07-18T01:54:53.150Z,23.93
2017-07-18T01:55:33.582Z,23.94
2017-07-18T01:56:14.142Z,23.9
2017-07-18T01:56:54.654Z,23.95
2017-07-18T01:57:35.154Z,23.94
2017-07-18T01:58:15.766Z,23.97
2017-07-18T01:58:56.099Z,23.95
2017-07-18T01:59:36.578Z,23.91
2017-07-18T02:00:17.208Z,23.84
2017-07-18T02:00:57.725Z,23.87
2017-07-18T02:01:38.201Z,23.93
2017-07-18T02:02:18.780Z,23.84
2017-07-18T02:02:59.367Z,23.72
2017-07-18T02:03:39.912Z,23.7
2017-07-18T02:04:20.389Z,23.78
2017-07-18T02:05:00.892Z,23.85
2017-07-18T02:05:41.416Z,23.72
2017-07-18T02:06:21.930Z,23.73
2017-07-18T02:07:02.433Z,23.7
2017-07-18T02:07:42.929Z,23.72
2017-07-18T02:08:23.427Z,23.6
2017-07-18T02:09:03.912Z,23.55
2017-07-18T02:09:44.450Z,23.73
2017-07-18T02:10:24.943Z,23.75
2017-07-18T02:11:05.423Z,23.76
2017-07-18T02:11:45.892Z,23.72
2017-07-18T02:12:26.425Z,23.63
2017-07-18T02:13:06.897Z,23.63
2017-07-18T02:13:47.396Z,23.72
2017-07-18T02:14:27.869Z,23.75
2017-07-18T02:15:08.378Z,23.84
2017-07-18T02:15:48.879Z,23.76
2017-07-18T02:16:29.394Z,23.7
2017-07-18T02:17:09.886Z,23.73
2017-07-18T02:17:50.588Z,23.75
2017-07-18T02:18:31.053Z,23.73
2017-07-18T02:19:11.538Z,23.7
2017-07-18T02:19:52.057Z,23.73
2017-07-18T02:20:32.567Z,23.8
2017-07-18T02:21:13.035Z,23.84
2017-07-18T02:21:53.674Z,23.88
2017-07-18T02:22:34.199Z,23.85
2017-07-18T02:23:14.745Z,23.75
2017-07-18T02:23:55.190Z,23.72
2017-07-18T02:24:35.675Z,23.85
2017-07-18T02:25:16.197Z,23.72
2017-07-18T02:25:56.704Z,23.79
2017-07-18T02:26:37.156Z,23.84
2017-07-18T02:27:17.642Z,23.85
2017-07-18T02:27:58.165Z,23.79
2017-07-18T02:28:38.629Z,23.73
2017-07-18T02:29:19.142Z,23.75
2017-07-18T02:29:59.775Z,23.75
2017-07-18T02:30:40.281Z,23.69
2017-07-18T02:31:20.823Z,23.63
2017-07-18T02:32:01.365Z,23.57
2017-07-18T02:32:41.840Z,23.5
2017-07-18T02:33:22.295Z,23.48
2017-07-18T02:34:02.838Z,23.42
2017-07-18T02:34:43.323Z,23.46
2017-07-18T02:35:23.811Z,23.43
2017-07-18T02:36:04.302Z,23.43
2017-07-18T02:36:44.791Z,23.46
2017-07-18T02:37:25.291Z,23.35
2017-07-18T02:38:05.801Z,23.38
2017-07-18T02:38:46.279Z,23.38
2017-07-18T02:39:26.771Z,23.5
2017-07-18T02:40:07.323Z,23.4
2017-07-18T02:40:47.840Z,23.38
2017-07-18T02:41:28.281Z,23.22
2017-07-18T02:42:08.800Z,23.31
2017-07-18T02:42:49.335Z,23.31
2017-07-18T02:43:29.884Z,23.05
2017-07-18T02:44:10.336Z,23.22
2017-07-18T02:44:50.887Z,23.15
2017-07-18T02:45:31.500Z,23.09
2017-07-18T02:46:12.027Z,23.16
2017-07-18T02:46:52.533Z,23.22
2017-07-18T02:47:33.016Z,23.25
2017-07-18T02:48:13.518Z,23.23
2017-07-18T02:48:54.061Z,23.36
2017-07-18T02:49:34.519Z,23.33
2017-07-18T02:50:14.992Z,23.35
2017-07-18T02:50:55.523Z,23.39
2017-07-18T02:51:36.106Z,23.39
2017-07-18T02:52:16.563Z,23.38
2017-07-18T02:52:57.078Z,23.35
2017-07-18T02:53:37.585Z,23.28
2017-07-18T02:54:18.089Z,23.31
2017-07-18T02:54:58.599Z,23.4
2017-07-18T02:55:39.101Z,23.36
2017-07-18T02:56:19.566Z,23.39
2017-07-18T02:57:00.069Z,23.47
2017-07-18T02:57:40.537Z,23.46
2017-07-18T02:58:21.044Z,23.43
2017-07-18T02:59:01.556Z,23.5
2017-07-18T02:59:42.150Z,23.4
2017-07-18T03:00:22.630Z,23.42
2017-07-18T03:01:03.130Z,23.54
2017-07-18T03:01:43.623Z,23.53
2017-07-18T03:02:24.097Z,23.43
2017-07-18T03:03:04.650Z,23.53
2017-07-18T03:03:45.107Z,23.5
2017-07-18T03:04:25.633Z,23.58
2017-07-18T03:05:06.064Z,23.55
2017-07-18T03:05:46.618Z,23.6
2017-07-18T03:06:27.105Z,23.63
2017-07-18T03:07:07.551Z,23.54
2017-07-18T03:07:48.067Z,23.57
2017-07-18T03:08:28.616Z,23.61
2017-07-18T03:09:09.109Z,23.68
2017-07-18T03:09:49.566Z,23.65
2017-07-18T03:10:30.113Z,23.54
2017-07-18T03:11:10.639Z,23.68
2017-07-18T03:11:51.124Z,23.57
2017-07-18T03:12:31.569Z,23.4
2017-07-18T03:13:12.078Z,23.35
2017-07-18T03:13:52.552Z,23.47
2017-07-18T03:14:33.087Z,23.33
2017-07-18T03:15:13.564Z,23.36
2017-07-18T03:15:54.073Z,23.33
2017-07-18T03:16:34.545Z,23.33
2017-07-18T03:17:15.033Z,23.32
2017-07-18T03:17:55.530Z,23.38
2017-07-18T03:18:36.029Z,23.33
2017-07-18T03:19:16.518Z,23.4
2017-07-18T03:19:57.000Z,23.27
2017-07-18T03:20:37.462Z,23.35
2017-07-18T03:21:17.962Z,23.33
2017-07-18T03:21:58.458Z,23.32
2017-07-18T03:22:38.982Z,23.27
2017-07-18T03:23:19.499Z,23.28
2017-07-18T03:23:59.991Z,23.38
2017-07-18T03:24:40.487Z,23.32
2017-07-18T03:25:20.959Z,23.38
2017-07-18T03:26:01.465Z,23.39
2017-07-18T03:26:41.913Z,23.33
2017-07-18T03:27:22.451Z,23.28
2017-07-18T03:28:02.970Z,23.27
2017-07-18T03:28:43.518Z,23.31
2017-07-18T03:29:24.049Z,23.22
2017-07-18T03:30:04.542Z,23.23
2017-07-18T03:30:45.014Z,23.27
2017-07-18T03:31:25.514Z,23.33
2017-07-18T03:32:06.011Z,23.33
2017-07-18T03:32:46.516Z,23.38
2017-07-18T03:33:27.086Z,23.36
2017-07-18T03:34:07.590Z,23.33
2017-07-18T03:34:48.077Z,23.27
2017-07-18T03:35:28.627Z,23.33
2017-07-18T03:36:09.164Z,23.13
2017-07-18T03:36:49.634Z,23.23
2017-07-18T03:37:30.121Z,23.28
2017-07-18T03:38:10.815Z,23.33
2017-07-18T03:38:51.283Z,23.38
2017-07-18T03:39:31.765Z,23.33
2017-07-18T03:40:12.237Z,23.38
2017-07-18T03:40:52.771Z,23.35
2017-07-18T03:41:33.264Z,23.39
2017-07-18T03:42:13.735Z,23.35
2017-07-18T03:42:54.410Z,23.25
2017-07-18T03:43:34.918Z,23.25
2017-07-18T03:44:15.453Z,23.28
2017-07-18T03:44:55.952Z,23.22
2017-07-18T03:45:36.385Z,23.27
2017-07-18T03:46:16.893Z,23.15
2017-07-18T03:46:57.426Z,23.25
2017-07-18T03:47:37.914Z,23.23
2017-07-18T03:48:18.416Z,23.23
2017-07-18T03:48:58.910Z,23.27
2017-07-18T03:49:39.456Z,23.17
2017-07-18T03:50:19.930Z,23.16
2017-07-18T03:51:00.437Z,23.23
2017-07-18T03:51:40.908Z,23.17
2017-07-18T03:52:21.410Z,23.22
2017-07-18T03:53:01.923Z,23.23
2017-07-18T03:53:42.377Z,23.22
2017-07-18T03:54:22.910Z,23.28
2017-07-18T03:55:03.370Z,23.17
2017-07-18T03:55:43.852Z,23.25
2017-07-18T03:56:24.365Z,23.31
2017-07-18T03:57:05.010Z,23.32
2017-07-18T03:57:45.481Z,23.23
2017-07-18T03:58:25.950Z,23.2
2017-07-18T03:59:06.443Z,23.32
2017-07-18T03:59:46.928Z,23.32
2017-07-18T04:00:27.435Z,23.32
2017-07-18T04:01:07.907Z,23.27
2017-07-18T04:01:48.424Z,23.28
2017-07-18T04:02:28.921Z,23.28
2017-07-18T04:03:09.403Z,23.36
2017-07-18T04:03:49.990Z,23.33
2017-07-18T04:04:30.499Z,23.36
2017-07-18T04:05:11.035Z,23.42
2017-07-18T04:05:51.495Z,23.23
2017-07-18T04:06:32.007Z,23.28
2017-07-18T04:07:12.492Z,23.31
2017-07-18T04:07:53.003Z,23.38
2017-07-18T04:08:33.549Z,23.27
2017-07-18T04:09:14.046Z,23.25
2017-07-18T04:09:54.529Z,23.28
2017-07-18T04:10:35.040Z,23.33
2017-07-18T04:11:15.583Z,23.25
2017-07-18T04:11:56.151Z,23.28
2017-07-18T04:12:36.657Z,23.25
2017-07-18T04:13:17.169Z,23.31
2017-07-18T04:13:57.649Z,23.15
2017-07-18T04:14:38.125Z,23.19
2017-07-18T04:15:18.606Z,23.13
2017-07-18T04:15:59.110Z,23.12
2017-07-18T04:16:39.632Z,23.07
2017-07-18T04:17:20.136Z,23.13
2017-07-18T04:18:00.650Z,23.2
2017-07-18T04:18:41.176Z,23.22
2017-07-18T04:19:21.651Z,23.17
2017-07-18T04:20:02.173Z,23.31
2017-07-18T04:20:42.660Z,23.2
2017-07-18T04:21:23.106Z,23.23
2017-07-18T04:22:03.613Z,23.31
2017-07-18T04:22:44.072Z,23.15
2017-07-18T04:23:24.553Z,23.23
2017-07-18T04:24:05.014Z,23.15
2017-07-18T04:24:45.533Z,23.13
2017-07-18T04:25:26.040Z,23.16
2017-07-18T04:26:06.520Z,23.15
2017-07-18T04:26:47.005Z,23.17
2017-07-18T04:27:27.511Z,23.2
2017-07-18T04:28:08.020Z,23.2
2017-07-18T04:28:48.530Z,23.1
2017-07-18T04:29:29.018Z,23.16
2017-07-18T04:30:09.532Z,23.13
2017-07-18T04:30:49.976Z,23.12
2017-07-18T04:31:30.452Z,23.12
2017-07-18T04:32:11.024Z,23.02
2017-07-18T04:32:51.515Z,23.15
2017-07-18T04:33:31.988Z,22.94
2017-07-18T04:34:12.484Z,22.85
2017-07-18T04:34:52.933Z,22.94
2017-07-18T04:35:33.461Z,22.88
2017-07-18T04:36:14.007Z,23.01
2017-07-18T04:36:54.457Z,23
2017-07-18T04:37:34.990Z,22.79
2017-07-18T04:38:15.446Z,22.9
2017-07-18T04:38:55.963Z,22.83
2017-07-18T04:39:36.572Z,22.88
2017-07-18T04:40:17.132Z,22.86
2017-07-18T04:40:57.628Z,22.72
2017-07-18T04:41:38.150Z,22.75
2017-07-18T04:42:18.657Z,22.85
2017-07-18T04:42:59.140Z,22.88
2017-07-18T04:43:39.633Z,23.1
2017-07-18T04:44:20.121Z,23.12
2017-07-18T04:45:00.628Z,23.13
2017-07-18T04:45:41.115Z,23.01
2017-07-18T04:46:21.693Z,23.15
2017-07-18T04:47:02.139Z,23.12
2017-07-18T04:47:42.620Z,22.83
2017-07-18T04:48:23.177Z,23.04
2017-07-18T04:49:03.696Z,23.09
2017-07-18T04:49:44.308Z,23.17
2017-07-18T04:50:24.833Z,23.04
2017-07-18T04:51:05.333Z,23
2017-07-18T04:51:45.790Z,22.98
2017-07-18T04:52:26.291Z,23.12
2017-07-18T04:53:06.781Z,23.1
2017-07-18T04:53:47.395Z,23.09
2017-07-18T04:54:27.864Z,22.98
2017-07-18T04:55:08.431Z,23.1
2017-07-18T04:55:49.013Z,23.12
2017-07-18T04:56:29.486Z,23.04
2017-07-18T04:57:10.003Z,22.91
2017-07-18T04:57:50.525Z,23.01
2017-07-18T04:58:31.014Z,23
2017-07-18T04:59:11.507Z,23.13
2017-07-18T04:59:51.986Z,23.12
2017-07-18T05:00:32.486Z,23.16
2017-07-18T05:01:13.052Z,23.25
2017-07-18T05:01:53.534Z,23.27
2017-07-18T05:02:34.023Z,23.31
2017-07-18T05:03:14.534Z,23.42
2017-07-18T05:03:55.048Z,23.43
2017-07-18T05:04:35.515Z,23.31
2017-07-18T05:05:16.797Z,23.28
2017-07-18T05:05:56.530Z,23.25
2017-07-18T05:06:37.048Z,23.25
2017-07-18T05:07:17.533Z,23.32
2017-07-18T05:07:58.039Z,23.35
2017-07-18T05:08:38.526Z,23.25
2017-07-18T05:09:19.053Z,23.36
2017-07-18T05:09:59.462Z,23.28
2017-07-18T05:10:40.158Z,23.22
2017-07-18T05:11:20.877Z,23.22
2017-07-18T05:12:01.747Z,23.36
2017-07-18T05:12:42.227Z,23.32
2017-07-18T05:13:22.738Z,23.36
2017-07-18T05:14:03.279Z,23.35
2017-07-18T05:14:44.074Z,23.48
2017-07-18T05:15:24.541Z,23.36
2017-07-18T05:16:04.998Z,23.4
2017-07-18T05:16:45.568Z,23.46
2017-07-18T05:17:26.070Z,23.35
2017-07-18T05:18:06.932Z,23.43
2017-07-18T05:19:56.852Z,23.66
2017-07-18T05:20:37.592Z,23.83
2017-07-18T05:21:18.138Z,23.8
2017-07-18T05:21:58.719Z,23.7
2017-07-18T05:22:39.215Z,23.8
2017-07-18T05:23:19.777Z,23.61
2017-07-18T05:24:01.193Z,23.69
2017-07-18T05:24:41.174Z,23.51
2017-07-18T05:25:21.682Z,23.7
2017-07-18T05:26:02.188Z,23.5
2017-07-18T05:26:42.749Z,23.39
2017-07-18T05:27:23.300Z,23.55
2017-07-18T05:28:03.867Z,23.5
2017-07-18T05:28:44.406Z,23.51
2017-07-18T05:29:26.453Z,23.51
2017-07-18T05:30:06.973Z,23.55
2017-07-18T05:30:49.121Z,23.55
2017-07-18T05:31:29.621Z,23.55
2017-07-18T05:32:10.169Z,23.75
2017-07-18T05:32:50.627Z,23.65
2017-07-18T05:33:31.176Z,23.53
2017-07-18T05:34:11.621Z,23.57
2017-07-18T05:34:52.176Z,23.48
2017-07-18T05:35:32.723Z,23.5
2017-07-18T05:36:13.266Z,23.51
2017-07-18T05:36:53.845Z,23.63
2017-07-18T05:37:36.072Z,23.55
2017-07-18T05:38:16.665Z,23.48
2017-07-18T05:38:57.188Z,23.4
2017-07-18T05:39:39.642Z,23.31
2017-07-18T05:40:20.118Z,23.35
2017-07-18T05:41:00.664Z,23.42
2017-07-18T05:41:41.153Z,23.43
2017-07-18T05:42:21.649Z,23.57
2017-07-18T05:43:02.162Z,23.57
2017-07-18T05:43:42.724Z,23.54
2017-07-18T05:44:25.143Z,23.55
2017-07-18T05:45:07.458Z,23.57
2017-07-18T05:45:49.689Z,23.6
2017-07-18T05:46:30.191Z,23.69
2017-07-18T05:47:10.690Z,23.63
2017-07-18T05:47:51.542Z,23.48
2017-07-18T05:48:32.048Z,23.51
2017-07-18T05:49:12.535Z,23.47
2017-07-18T05:49:53.059Z,23.46
2017-07-18T05:50:33.544Z,23.47
2017-07-18T05:51:14.078Z,23.63
2017-07-18T05:51:54.633Z,23.5
2017-07-18T05:52:37.035Z,23.69
2017-07-18T05:53:17.482Z,23.7
2017-07-18T05:53:57.997Z,23.69
2017-07-18T05:54:38.563Z,23.61
2017-07-18T05:55:19.123Z,23.46
2017-07-18T05:56:01.329Z,23.57
2017-07-18T05:56:41.817Z,23.73
2017-07-18T05:57:22.326Z,23.76
2017-07-18T05:58:02.870Z,23.84
2017-07-18T05:58:47.097Z,24.1
2017-07-18T05:59:27.561Z,24.22
2017-07-18T06:00:08.072Z,24.37
2017-07-18T06:00:48.583Z,24.52
2017-07-18T06:01:29.197Z,24.52
2017-07-18T06:02:09.721Z,24.61
2017-07-18T06:02:50.213Z,24.61
2017-07-18T06:03:30.760Z,24.77
2017-07-18T06:04:11.265Z,24.9
2017-07-18T06:04:51.770Z,25.13
2017-07-18T06:05:36.092Z,25.14
2017-07-18T06:06:18.493Z,25.18
2017-07-18T06:06:58.987Z,25.17
2017-07-18T06:07:39.537Z,25.39
2017-07-18T06:08:20.091Z,25.46
2017-07-18T06:09:01.030Z,25.5
2017-07-18T06:09:41.704Z,25.61
2017-07-18T06:10:22.155Z,25.65
2017-07-18T06:11:02.692Z,25.75
2017-07-18T06:11:44.806Z,25.69
2017-07-18T06:12:25.395Z,25.77
2017-07-18T06:13:05.906Z,25.87
2017-07-18T06:13:46.449Z,26.01
2017-07-18T06:14:26.992Z,26.1
2017-07-18T06:15:07.594Z,26.05
2017-07-18T06:15:48.111Z,25.95
2017-07-18T06:16:28.689Z,25.79
2017-07-18T06:17:09.254Z,25.88
2017-07-18T06:17:49.854Z,26.01
2017-07-18T06:18:30.394Z,26.18
2017-07-18T06:19:10.886Z,26.23
2017-07-18T06:19:51.399Z,26.06
2017-07-18T06:20:31.995Z,26.15
2017-07-18T06:21:12.498Z,26.18
2017-07-18T06:21:52.954Z,26.05
2017-07-18T06:22:33.456Z,26.28
2017-07-18T06:23:13.955Z,26.33
2017-07-18T06:23:56.310Z,26.44
2017-07-18T06:24:36.858Z,26.52
2017-07-18T06:25:17.404Z,26.58
2017-07-18T06:27:10.735Z,26.55
2017-07-18T06:27:51.138Z,26.55
2017-07-18T06:28:31.649Z,26.35
2017-07-18T06:29:12.180Z,26.35
2017-07-18T06:29:52.630Z,26.26
2017-07-18T06:30:33.158Z,26.12
2017-07-18T06:31:13.656Z,26.18
2017-07-18T06:31:54.128Z,26.07
2017-07-18T06:32:34.646Z,26.18
2017-07-18T06:33:15.121Z,26.29
2017-07-18T06:33:55.622Z,26.07
2017-07-18T06:34:36.160Z,26.29
2017-07-18T06:35:16.581Z,26.15
2017-07-18T06:35:57.100Z,26.25
2017-07-18T06:36:37.573Z,26.25
2017-07-18T06:37:18.077Z,26.36
2017-07-18T06:37:58.555Z,26.54
2017-07-18T06:38:39.027Z,26.43
2017-07-18T06:39:19.564Z,26.51
2017-07-18T06:40:00.107Z,26.51
2017-07-18T06:40:40.469Z,26.55
2017-07-18T06:41:21.022Z,26.51
2017-07-18T06:42:01.524Z,26.4
2017-07-18T06:42:42.032Z,26.37
2017-07-18T06:43:22.431Z,26.47
2017-07-18T06:44:03.001Z,26.37
2017-07-18T06:44:43.456Z,26.35
2017-07-18T06:45:23.926Z,26.4
2017-07-18T06:46:04.434Z,26.36
2017-07-18T06:46:44.899Z,26.33
2017-07-18T06:47:25.461Z,26.6
2017-07-18T06:48:06.287Z,26.55
2017-07-18T06:48:47.450Z,26.54
2017-07-18T06:49:28.223Z,26.57
2017-07-18T06:50:08.682Z,26.57
2017-07-18T06:50:49.193Z,26.51
2017-07-18T06:51:29.723Z,26.5
2017-07-18T06:52:10.290Z,26.55
2017-07-18T06:52:50.820Z,26.72
2017-07-18T06:53:31.298Z,26.7
2017-07-18T06:54:11.864Z,26.73
2017-07-18T06:54:52.260Z,26.58
2017-07-18T06:55:33.145Z,26.57
2017-07-18T06:56:13.532Z,26.73
2017-07-18T06:56:54.086Z,26.66
2017-07-18T06:57:34.579Z,26.73
2017-07-18T06:58:15.087Z,26.88
2017-07-18T06:58:55.599Z,26.97
2017-07-18T06:59:36.069Z,27.06
2017-07-18T07:00:16.638Z,27.04
2017-07-18T07:00:57.075Z,27.04
2017-07-18T07:01:37.683Z,27.02
2017-07-18T07:02:18.148Z,26.89
2017-07-18T07:02:58.636Z,26.97
2017-07-18T07:03:39.093Z,26.94
2017-07-18T07:04:19.635Z,26.87
2017-07-18T07:05:00.078Z,26.87
2017-07-18T07:05:40.592Z,26.8
2017-07-18T07:06:21.158Z,26.94
2017-07-18T07:07:01.661Z,26.95
2017-07-18T07:07:42.153Z,27.03
2017-07-18T07:08:22.649Z,27.09
2017-07-18T07:09:03.134Z,26.97
2017-07-18T07:09:43.652Z,26.99
2017-07-18T07:10:24.109Z,26.97
2017-07-18T07:11:04.630Z,27.07
2017-07-18T07:11:45.273Z,27.04
2017-07-18T07:12:25.747Z,27.12
2017-07-18T07:13:06.558Z,27.04
2017-07-18T07:13:47.143Z,27.09
2017-07-18T07:14:27.713Z,27.1
2017-07-18T07:15:08.211Z,27.27
2017-07-18T07:15:48.724Z,27.37
2017-07-18T07:16:29.199Z,27.36
2017-07-18T07:17:09.756Z,27.32
2017-07-18T07:17:50.198Z,27.36
2017-07-18T07:18:30.926Z,27.4
2017-07-18T07:19:11.434Z,27.28
2017-07-18T07:19:51.986Z,27.32
2017-07-18T07:20:32.487Z,27.31
2017-07-18T07:21:12.983Z,27.34
2017-07-18T07:21:53.533Z,27.34
2017-07-18T07:22:34.097Z,27.28
2017-07-18T07:23:14.585Z,27.32
2017-07-18T07:23:55.112Z,27.46
2017-07-18T07:24:35.555Z,27.63
2017-07-18T07:25:16.138Z,27.5
2017-07-18T07:25:56.638Z,27.49
2017-07-18T07:26:37.150Z,27.46
2017-07-18T07:27:17.619Z,27.37
2017-07-18T07:27:58.111Z,27.41
2017-07-18T07:28:38.603Z,27.39
2017-07-18T07:29:19.122Z,27.41
2017-07-18T07:29:59.605Z,27.44
2017-07-18T07:30:40.128Z,27.43
2017-07-18T07:31:20.671Z,27.44
2017-07-18T07:32:01.209Z,27.44
2017-07-18T07:32:41.673Z,27.5
2017-07-18T07:33:22.219Z,27.44
2017-07-18T07:34:02.724Z,27.39
2017-07-18T07:34:43.159Z,27.4
2017-07-18T07:35:23.675Z,27.47
2017-07-18T07:36:04.202Z,27.49
2017-07-18T07:36:44.735Z,27.55
2017-07-18T07:37:25.253Z,27.49
2017-07-18T07:38:05.751Z,27.51
2017-07-18T07:38:46.221Z,27.41
2017-07-18T07:39:26.734Z,27.5
2017-07-18T07:40:07.200Z,27.59
2017-07-18T07:40:47.732Z,27.49
2017-07-18T07:41:28.208Z,27.49
2017-07-18T07:42:08.670Z,27.51
2017-07-18T07:42:49.168Z,27.39
2017-07-18T07:43:29.704Z,27.39
2017-07-18T07:44:10.289Z,27.49
2017-07-18T07:44:50.801Z,27.46
2017-07-18T07:45:31.324Z,27.4
2017-07-18T07:46:11.811Z,27.39
2017-07-18T07:46:52.362Z,27.49
2017-07-18T07:47:32.934Z,27.41
2017-07-18T07:48:13.349Z,27.4
2017-07-18T07:48:53.823Z,27.41
2017-07-18T07:49:34.316Z,27.47
2017-07-18T07:50:14.858Z,27.51
2017-07-18T07:50:55.519Z,27.47
2017-07-18T07:51:35.978Z,27.39
2017-07-18T07:52:16.477Z,27.44
2017-07-18T07:52:56.993Z,27.51
2017-07-18T07:53:37.524Z,27.5
2017-07-18T07:54:18.012Z,27.67
2017-07-18T07:54:58.534Z,27.6
2017-07-18T07:55:39.114Z,27.59
2017-07-18T07:56:19.785Z,27.74
2017-07-18T07:57:00.340Z,27.62
2017-07-18T07:57:40.825Z,27.67
2017-07-18T07:58:21.317Z,27.54
2017-07-18T07:59:01.805Z,27.6
2017-07-18T07:59:42.320Z,27.67
2017-07-18T08:00:22.974Z,27.65
2017-07-18T08:01:03.480Z,27.66
2017-07-18T08:01:44.051Z,27.63
2017-07-18T08:02:24.530Z,27.6
2017-07-18T08:03:05.076Z,27.6
2017-07-18T08:03:45.559Z,27.44
2017-07-18T08:04:26.065Z,27.55
2017-07-18T08:05:06.543Z,27.59
2017-07-18T08:05:47.098Z,27.46
2017-07-18T08:06:27.870Z,27.5
2017-07-18T08:07:08.438Z,27.46
2017-07-18T08:07:48.965Z,27.51
2017-07-18T08:08:29.567Z,27.5
2017-07-18T08:09:10.076Z,27.59
2017-07-18T08:09:50.540Z,27.57
2017-07-18T08:10:31.055Z,27.59
2017-07-18T08:11:11.524Z,27.65
2017-07-18T08:11:52.037Z,27.62
2017-07-18T08:12:32.600Z,27.55
2017-07-18T08:13:13.081Z,27.43
2017-07-18T08:13:53.883Z,27.54
2017-07-18T08:14:34.355Z,27.51
2017-07-18T08:15:14.980Z,27.49
2017-07-18T08:15:55.382Z,27.6
2017-07-18T08:16:35.887Z,27.57
2017-07-18T08:17:16.330Z,27.57
2017-07-18T08:17:56.872Z,27.77
2017-07-18T08:18:37.416Z,27.75
2017-07-18T08:19:17.922Z,27.7
2017-07-18T08:19:58.426Z,27.82
2017-07-18T08:20:38.969Z,27.79
2017-07-18T08:21:19.388Z,27.65
2017-07-18T08:21:59.934Z,27.7
2017-07-18T08:22:40.405Z,27.66
2017-07-18T08:23:20.975Z,27.59
2017-07-18T08:24:01.454Z,27.67
2017-07-18T08:24:41.886Z,27.72
2017-07-18T08:25:22.438Z,27.77
2017-07-18T08:26:02.984Z,27.72
2017-07-18T08:26:43.527Z,27.63
2017-07-18T08:27:23.981Z,27.57
2017-07-18T08:28:04.485Z,27.62
2017-07-18T08:28:45.010Z,27.46
2017-07-18T08:29:25.726Z,27.51
2017-07-18T08:30:06.195Z,27.57
2017-07-18T08:30:46.657Z,27.74
2017-07-18T08:31:27.260Z,27.65
2017-07-18T08:32:07.757Z,27.75
2017-07-18T08:32:48.207Z,27.7
2017-07-18T08:33:28.729Z,27.62
2017-07-18T08:34:09.188Z,27.75
2017-07-18T08:34:49.751Z,27.72
2017-07-18T08:35:30.281Z,27.6
2017-07-18T08:36:10.740Z,27.59
2017-07-18T08:36:51.235Z,27.54
2017-07-18T08:37:31.718Z,27.51
2017-07-18T08:38:12.333Z,27.69
2017-07-18T08:38:52.868Z,27.78
2017-07-18T08:39:33.347Z,27.85
2017-07-18T08:40:13.832Z,27.99
2017-07-18T08:40:54.311Z,27.99
2017-07-18T08:41:34.829Z,28.04
2017-07-18T08:42:15.267Z,28.09
2017-07-18T08:42:55.758Z,27.99
2017-07-18T08:43:36.269Z,28.04
2017-07-18T08:44:16.816Z,28.24
2017-07-18T08:44:57.301Z,28.33
2017-07-18T08:45:37.814Z,28.25
2017-07-18T08:46:18.302Z,28.24
2017-07-18T08:46:58.770Z,28.21